createdAt,value
2023-08-30T00:01:36.322Z,99494.08
2023-08-30T00:04:03.694Z,99495.70
2023-08-30T00:06:32.731Z,99494.19
2023-08-30T00:09:00.121Z,99500.57
2023-08-30T00:11:28.181Z,99497.58
2023-08-30T00:14:07.724Z,99498.82
2023-08-30T00:16:35.489Z,99496.28
2023-08-30T00:19:03.061Z,99491.08
2023-08-30T00:21:30.982Z,99493.31
2023-08-30T00:23:58.503Z,99493.73
2023-08-30T00:26:26.333Z,99495.25
2023-08-30T00:28:55.557Z,99499.69
2023-08-30T00:31:23.339Z,99498.33
2023-08-30T00:33:50.997Z,99499.74
2023-08-30T00:36:19.324Z,99500.69
2023-08-30T00:38:46.918Z,99502.97
2023-08-30T00:41:14.338Z,99505.65
2023-08-30T00:43:43.012Z,99510.20
2023-08-30T00:46:10.572Z,99511.63
2023-08-30T00:48:38.097Z,99515.47
2023-08-30T00:51:05.531Z,99519.23
2023-08-30T00:53:33.713Z,99516.17
2023-08-30T00:56:01.200Z,99514.59
2023-08-30T00:58:29.128Z,99517.59
2023-08-30T01:00:56.618Z,99514.42
2023-08-30T01:03:24.137Z,99517.39
2023-08-30T01:05:51.859Z,99522.31
2023-08-30T01:08:19.369Z,99515.80
2023-08-30T01:10:56.563Z,99519.96
2023-08-30T01:13:24.060Z,99522.42
2023-08-30T01:15:52.285Z,99523.85
2023-08-30T01:18:23.259Z,99518.71
2023-08-30T01:20:50.696Z,99525.17
2023-08-30T01:23:43.695Z,99525.00
2023-08-30T01:26:14.624Z,99524.42
2023-08-30T01:28:43.605Z,99525.72
2023-08-30T01:31:11.194Z,99528.99
2023-08-30T01:33:38.896Z,99529.58
2023-08-30T01:36:06.335Z,99530.83
2023-08-30T01:38:34.299Z,99524.38
2023-08-30T01:41:02.865Z,99527.52
2023-08-30T01:43:30.694Z,99521.45
2023-08-30T01:45:58.479Z,99525.60
2023-08-30T01:48:25.955Z,99527.84
2023-08-30T01:50:55.489Z,99530.33
2023-08-30T01:53:23.029Z,99527.78
2023-08-30T01:55:50.478Z,99531.81
2023-08-30T01:58:17.817Z,99531.48
2023-08-30T02:00:45.155Z,99530.61
2023-08-30T02:03:13.200Z,99531.51
2023-08-30T02:06:05.276Z,99528.06
2023-08-30T02:08:39.420Z,99531.73
2023-08-30T02:11:12.806Z,99529.23
2023-08-30T02:13:40.244Z,99528.27
2023-08-30T02:16:07.594Z,99529.29
2023-08-30T02:18:35.345Z,99526.95
2023-08-30T02:21:02.616Z,99525.50
2023-08-30T02:23:30.058Z,99525.35
2023-08-30T02:25:58.210Z,99518.83
2023-08-30T02:28:25.693Z,99521.94
2023-08-30T02:30:53.961Z,99521.59
2023-08-30T02:33:22.071Z,99521.96
2023-08-30T02:35:49.388Z,99521.29
2023-08-30T02:38:16.841Z,99521.20
2023-08-30T02:40:44.416Z,99517.20
2023-08-30T02:43:12.006Z,99518.23
2023-08-30T02:45:39.401Z,99515.66
2023-08-30T02:48:07.504Z,99512.02
2023-08-30T02:50:35.443Z,99516.67
2023-08-30T02:53:03.093Z,99516.42
2023-08-30T02:55:31.812Z,99511.65
2023-08-30T02:57:59.282Z,99513.02
2023-08-30T03:00:27.928Z,99514.58
2023-08-30T03:02:56.486Z,99514.38
2023-08-30T03:05:24.130Z,99510.48
2023-08-30T03:07:52.142Z,99517.09
2023-08-30T03:10:19.761Z,99523.78
2023-08-30T03:12:48.168Z,99520.56
2023-08-30T03:15:15.609Z,99526.17
2023-08-30T03:17:43.127Z,99523.89
2023-08-30T03:20:11.376Z,99526.70
2023-08-30T03:22:38.684Z,99519.09
2023-08-30T03:25:07.404Z,99517.93
2023-08-30T03:27:34.889Z,99516.17
2023-08-30T03:30:04.232Z,99513.55
2023-08-30T03:32:33.740Z,99512.60
2023-08-30T03:35:01.481Z,99510.70
2023-08-30T03:37:28.829Z,99513.34
2023-08-30T03:39:56.321Z,99511.74
2023-08-30T03:42:24.404Z,99515.27
2023-08-30T03:44:51.782Z,99511.00
2023-08-30T03:47:18.973Z,99514.96
2023-08-30T03:49:46.365Z,99515.48
2023-08-30T03:52:14.722Z,99518.39
2023-08-30T03:54:42.254Z,99515.36
2023-08-30T03:57:09.607Z,99510.06
2023-08-30T03:59:36.969Z,99510.50
2023-08-30T04:02:04.514Z,99511.21
2023-08-30T04:04:32.640Z,99509.83
2023-08-30T04:06:59.953Z,99509.61
2023-08-30T04:09:28.060Z,99506.66
2023-08-30T04:11:55.477Z,99505.59
2023-08-30T04:14:24.833Z,99504.85
2023-08-30T04:16:53.427Z,99509.95
2023-08-30T04:19:20.712Z,99510.69
2023-08-30T04:21:48.064Z,99509.92
2023-08-30T04:24:15.976Z,99506.06
2023-08-30T04:26:44.321Z,99506.61
2023-08-30T04:29:12.128Z,99511.86
2023-08-30T04:31:39.671Z,99514.14
2023-08-30T04:34:07.048Z,99516.08
2023-08-30T04:36:34.390Z,99514.79
2023-08-30T04:39:03.369Z,99516.06
2023-08-30T04:41:34.534Z,99516.36
2023-08-30T04:44:02.053Z,99516.73
2023-08-30T04:46:30.642Z,99517.95
2023-08-30T04:48:57.930Z,99515.93
2023-08-30T04:51:25.295Z,99514.59
2023-08-30T04:53:52.795Z,99510.20
2023-08-30T04:56:20.169Z,99510.30
2023-08-30T04:58:47.677Z,99506.38
2023-08-30T05:01:15.555Z,99507.29
2023-08-30T05:03:46.345Z,99509.50
2023-08-30T05:06:16.982Z,99513.08
2023-08-30T05:08:44.863Z,99515.48
2023-08-30T05:11:12.610Z,99515.11
2023-08-30T05:13:40.006Z,99511.23
2023-08-30T05:16:07.568Z,99513.02
2023-08-30T05:18:35.360Z,99518.44
2023-08-30T05:21:06.216Z,99515.34
2023-08-30T05:23:33.820Z,99518.63
2023-08-30T05:26:01.406Z,99518.89
2023-08-30T05:28:28.990Z,99521.05
2023-08-30T05:30:57.677Z,99524.18
2023-08-30T05:33:51.265Z,99525.23
2023-08-30T05:36:45.061Z,99526.87
2023-08-30T05:39:47.641Z,99520.62
2023-08-30T05:42:15.169Z,99522.27
2023-08-30T05:44:42.354Z,99523.05
2023-08-30T05:47:15.588Z,99524.84
2023-08-30T05:49:43.110Z,99517.02
2023-08-30T05:52:10.432Z,99514.38
2023-08-30T05:54:37.905Z,99515.92
2023-08-30T05:57:05.599Z,99507.95
2023-08-30T05:59:32.991Z,99509.58
2023-08-30T06:02:00.270Z,99509.99
2023-08-30T06:04:27.744Z,99510.05
2023-08-30T06:06:55.163Z,99516.24
2023-08-30T06:09:23.041Z,99517.24
2023-08-30T06:11:50.486Z,99519.14
2023-08-30T06:14:17.825Z,99517.40
2023-08-30T06:16:45.381Z,99521.10
2023-08-30T06:19:12.844Z,99522.94
2023-08-30T06:21:40.187Z,99522.73
2023-08-30T06:24:08.000Z,99522.19
2023-08-30T06:26:35.235Z,99525.33
2023-08-30T06:29:05.286Z,99527.11
2023-08-30T06:31:33.427Z,99527.02
2023-08-30T06:34:01.293Z,99526.05
2023-08-30T06:36:28.767Z,99530.63
2023-08-30T06:38:56.216Z,99530.73
2023-08-30T06:41:24.289Z,99533.81
2023-08-30T06:43:51.693Z,99530.94
2023-08-30T06:46:19.055Z,99528.39
2023-08-30T06:48:46.373Z,99529.27
2023-08-30T06:51:13.592Z,99531.17
2023-08-30T06:53:41.109Z,99533.85
2023-08-30T06:56:08.372Z,99535.73
2023-08-30T06:58:35.822Z,99539.88
2023-08-30T07:01:04.223Z,99539.55
2023-08-30T07:03:32.697Z,99542.36
2023-08-30T07:06:00.004Z,99548.26
2023-08-30T07:08:27.583Z,99545.56
2023-08-30T07:10:54.861Z,99546.38
2023-08-30T07:13:22.056Z,99546.14
2023-08-30T07:15:49.987Z,99546.42
2023-08-30T07:18:17.340Z,99547.95
2023-08-30T07:20:45.114Z,99548.20
2023-08-30T07:23:12.518Z,99548.55
2023-08-30T07:25:40.009Z,99548.51
2023-08-30T07:28:07.769Z,99540.74
2023-08-30T07:30:36.023Z,99545.24
2023-08-30T07:33:05.109Z,99546.36
2023-08-30T07:35:33.725Z,99545.23
2023-08-30T07:38:01.447Z,99543.02
2023-08-30T07:40:29.824Z,99540.08
2023-08-30T07:42:59.601Z,99540.87
2023-08-30T07:45:28.054Z,99539.21
2023-08-30T07:47:55.839Z,99536.00
2023-08-30T07:50:23.275Z,99532.09
2023-08-30T07:52:50.677Z,99533.36
2023-08-30T07:55:17.947Z,99529.34
2023-08-30T07:57:45.470Z,99528.50
2023-08-30T08:00:13.657Z,99531.56
2023-08-30T08:02:46.010Z,99528.27
2023-08-30T08:05:13.881Z,99531.30
2023-08-30T08:07:43.266Z,99524.21
2023-08-30T08:10:10.979Z,99525.12
2023-08-30T08:12:39.161Z,99523.19
2023-08-30T08:15:07.323Z,99523.33
2023-08-30T08:17:34.821Z,99522.91
2023-08-30T08:20:02.206Z,99524.16
2023-08-30T08:22:29.761Z,99523.08
2023-08-30T08:24:57.890Z,99525.81
2023-08-30T08:27:28.500Z,99521.86
2023-08-30T08:29:56.071Z,99520.91
2023-08-30T08:32:23.493Z,99525.95
2023-08-30T08:34:50.766Z,99526.21
2023-08-30T08:37:17.981Z,99524.05
2023-08-30T08:39:47.118Z,99523.46
2023-08-30T08:42:17.174Z,99526.09
2023-08-30T08:44:44.785Z,99523.14
2023-08-30T08:47:12.094Z,99525.02
2023-08-30T08:49:40.180Z,99528.23
2023-08-30T08:52:19.601Z,99527.55
2023-08-30T08:54:51.554Z,99524.53
2023-08-30T08:57:20.101Z,99520.94
2023-08-30T08:59:47.412Z,99518.16
2023-08-30T09:02:15.333Z,99520.35
2023-08-30T09:04:42.715Z,99520.52
2023-08-30T09:07:10.041Z,99512.56
2023-08-30T09:09:37.638Z,99515.06
2023-08-30T09:12:05.186Z,99508.80
2023-08-30T09:14:32.987Z,99508.02
2023-08-30T09:17:01.896Z,99505.29
2023-08-30T09:19:30.721Z,99502.95
2023-08-30T09:21:59.316Z,99498.61
2023-08-30T09:24:27.013Z,99499.80
2023-08-30T09:26:55.218Z,99499.32
2023-08-30T09:29:24.212Z,99495.71
2023-08-30T09:31:54.613Z,99497.39
2023-08-30T09:34:27.061Z,99491.92
2023-08-30T09:36:54.911Z,99493.20
2023-08-30T09:39:22.662Z,99488.61
2023-08-30T09:41:51.140Z,99491.02
2023-08-30T09:44:21.927Z,99487.75
2023-08-30T09:46:55.681Z,99485.84
2023-08-30T09:49:25.274Z,99478.95
2023-08-30T09:51:54.214Z,99478.13
2023-08-30T09:54:39.227Z,99479.70
2023-08-30T09:57:08.291Z,99484.00
2023-08-30T09:59:35.979Z,99481.60
2023-08-30T10:02:05.448Z,99479.38
2023-08-30T10:04:33.851Z,99478.81
2023-08-30T10:07:01.340Z,99477.25
2023-08-30T10:09:29.011Z,99478.92
2023-08-30T10:11:56.491Z,99465.54
2023-08-30T10:14:23.895Z,99470.88
2023-08-30T10:16:51.234Z,99470.02
2023-08-30T10:19:25.539Z,99468.88
2023-08-30T10:22:06.876Z,99468.20
2023-08-30T10:24:52.256Z,99468.11
2023-08-30T10:27:25.221Z,99474.36
2023-08-30T10:29:52.724Z,99464.34
2023-08-30T10:32:23.261Z,99463.02
2023-08-30T10:34:51.178Z,99465.86
2023-08-30T10:37:25.329Z,99462.98
2023-08-30T10:39:52.538Z,99457.23
2023-08-30T10:42:23.243Z,99449.38
2023-08-30T10:45:12.362Z,99442.27
2023-08-30T10:47:41.463Z,99443.58
2023-08-30T10:50:12.870Z,99441.42
2023-08-30T10:52:40.805Z,99439.68
2023-08-30T10:55:12.027Z,99431.76
2023-08-30T10:57:43.188Z,99428.63
2023-08-30T11:00:17.008Z,99426.94
2023-08-30T11:02:47.139Z,99421.67
2023-08-30T11:05:16.427Z,99420.05
2023-08-30T11:07:44.408Z,99417.12
2023-08-30T11:10:12.142Z,99414.23
2023-08-30T11:12:46.718Z,99408.77
2023-08-30T11:15:17.669Z,99401.36
2023-08-30T11:17:45.125Z,99402.11
2023-08-30T11:20:14.585Z,99403.27
2023-08-30T11:22:46.542Z,99401.48
2023-08-30T11:25:15.279Z,99400.55
2023-08-30T11:27:42.590Z,99400.16
2023-08-30T11:30:11.000Z,99392.58
2023-08-30T11:32:39.828Z,99386.81
2023-08-30T11:35:07.990Z,99385.53
2023-08-30T11:37:35.729Z,99377.66
2023-08-30T11:40:04.574Z,99377.88
2023-08-30T11:42:32.534Z,99370.83
2023-08-30T11:45:03.577Z,99365.30
2023-08-30T11:47:31.215Z,99365.29
2023-08-30T11:49:58.543Z,99365.48
2023-08-30T11:52:26.495Z,99364.67
2023-08-30T12:07:28.134Z,99352.03
2023-08-30T12:10:10.057Z,99357.05
2023-08-30T12:12:38.576Z,99357.57
2023-08-30T12:15:13.636Z,99355.69
2023-08-30T12:17:41.680Z,99348.83
2023-08-30T12:20:18.624Z,99350.32
2023-08-30T12:22:46.681Z,99357.89
2023-08-30T12:25:34.103Z,99354.60
2023-08-30T12:28:02.096Z,99353.32
2023-08-30T12:30:30.108Z,99358.27
2023-08-30T12:33:05.154Z,99360.66
2023-08-30T12:35:33.835Z,99358.97
2023-08-30T12:38:01.807Z,99359.02
2023-08-30T12:40:30.033Z,99355.20
2023-08-30T12:42:58.233Z,99355.40
2023-08-30T12:45:26.286Z,99356.98
2023-08-30T12:47:54.436Z,99363.98
2023-08-30T12:50:23.308Z,99364.06
2023-08-30T12:52:51.276Z,99362.64
2023-08-30T12:55:20.730Z,99362.92
2023-08-30T12:57:48.791Z,99361.14
2023-08-30T13:00:17.057Z,99366.90
2023-08-30T13:02:45.196Z,99363.69
2023-08-30T13:05:13.373Z,99368.58
2023-08-30T13:07:41.464Z,99365.48
2023-08-30T13:10:09.962Z,99366.98
2023-08-30T13:12:40.275Z,99373.32
2023-08-30T13:15:10.791Z,99374.06
2023-08-30T13:17:39.057Z,99370.30
2023-08-30T13:20:07.725Z,99376.56
2023-08-30T13:22:35.716Z,99385.62
2023-08-30T13:25:05.298Z,99385.20
2023-08-30T13:27:33.422Z,99391.31
2023-08-30T13:30:01.472Z,99386.54
2023-08-30T13:32:29.683Z,99389.57
2023-08-30T13:34:57.831Z,99387.14
2023-08-30T13:37:25.949Z,99381.55
2023-08-30T13:39:55.237Z,99383.69
2023-08-30T13:42:24.333Z,99384.44
2023-08-30T13:44:52.813Z,99385.94
2023-08-30T13:47:21.523Z,99387.60
2023-08-30T13:49:49.564Z,99388.98
2023-08-30T13:52:17.644Z,99394.81
2023-08-30T13:54:45.725Z,99393.35
2023-08-30T13:57:13.720Z,99393.63
2023-08-30T13:59:41.830Z,99390.27
2023-08-30T14:02:09.938Z,99388.02
2023-08-30T14:04:38.935Z,99393.85
2023-08-30T14:07:07.480Z,99386.45
2023-08-30T14:09:35.644Z,99387.27
2023-08-30T14:12:05.385Z,99389.78
2023-08-30T14:14:34.275Z,99390.58
2023-08-30T14:17:02.409Z,99394.95
2023-08-30T14:19:30.413Z,99391.55
2023-08-30T14:21:59.782Z,99396.29
2023-08-30T14:24:27.836Z,99394.65
2023-08-30T14:26:55.940Z,99398.48
2023-08-30T14:29:24.103Z,99396.63
2023-08-30T14:31:52.500Z,99390.80
2023-08-30T14:34:22.143Z,99394.07
2023-08-30T14:36:50.246Z,99394.94
2023-08-30T14:39:18.414Z,99394.26
2023-08-30T14:41:46.553Z,99400.55
2023-08-30T14:44:14.589Z,99395.71
2023-08-30T14:46:42.623Z,99391.80
2023-08-30T14:49:10.835Z,99391.64
2023-08-30T14:51:38.819Z,99395.22
2023-08-30T14:54:06.880Z,99392.66
2023-08-30T14:56:35.265Z,99390.57
2023-08-30T14:59:03.274Z,99387.86
2023-08-30T15:01:31.328Z,99391.75
2023-08-30T15:03:59.659Z,99394.81
2023-08-30T15:06:27.880Z,99393.84
2023-08-30T15:08:56.008Z,99391.78
2023-08-30T15:11:24.020Z,99395.24
2023-08-30T15:13:52.018Z,99396.07
2023-08-30T15:16:20.069Z,99389.96
2023-08-30T15:18:48.110Z,99390.04
2023-08-30T15:21:16.203Z,99387.02
2023-08-30T15:23:44.210Z,99384.98
2023-08-30T15:26:17.649Z,99381.28
2023-08-30T15:28:48.485Z,99380.42
2023-08-30T15:31:17.458Z,99376.48
2023-08-30T15:33:45.657Z,99382.63
2023-08-30T15:36:13.940Z,99383.08
2023-08-30T15:38:46.482Z,99383.63
2023-08-30T15:41:14.582Z,99383.84
2023-08-30T15:43:42.710Z,99386.13
2023-08-30T15:46:11.583Z,99385.79
2023-08-30T15:48:40.495Z,99388.29
2023-08-30T15:51:12.480Z,99388.27
2023-08-30T15:53:49.080Z,99385.95
2023-08-30T15:56:17.250Z,99387.02
2023-08-30T15:58:45.210Z,99389.33
2023-08-30T16:01:14.893Z,99389.27
2023-08-30T16:03:43.781Z,99390.58
2023-08-30T16:06:12.219Z,99393.28
2023-08-30T16:08:40.235Z,99392.94
2023-08-30T16:11:08.848Z,99392.91
2023-08-30T16:13:36.851Z,99395.19
2023-08-30T16:16:04.982Z,99402.44
2023-08-30T16:18:33.527Z,99399.54
2023-08-30T16:21:01.701Z,99402.79
2023-08-30T16:23:30.740Z,99403.45
2023-08-30T16:25:59.673Z,99404.23
2023-08-30T16:28:27.875Z,99401.22
2023-08-30T16:31:00.974Z,99402.17
2023-08-30T16:33:29.230Z,99402.95
2023-08-30T16:35:59.181Z,99406.77
2023-08-30T16:38:27.582Z,99405.92
2023-08-30T16:40:55.784Z,99405.61
2023-08-30T16:43:23.902Z,99405.35
2023-08-30T16:45:52.041Z,99406.20
2023-08-30T16:48:20.411Z,99403.56
2023-08-30T16:50:49.036Z,99399.54
2023-08-30T16:53:16.998Z,99395.69
2023-08-30T16:55:45.110Z,99396.83
2023-08-30T16:58:14.436Z,99388.98
2023-08-30T17:00:42.640Z,99390.77
2023-08-30T17:03:11.305Z,99391.11
2023-08-30T17:05:41.471Z,99394.28
2023-08-30T17:08:10.035Z,99396.55
2023-08-30T17:10:38.442Z,99399.60
2023-08-30T17:13:07.021Z,99397.39
2023-08-30T17:15:35.269Z,99403.02
2023-08-30T17:18:03.633Z,99404.27
2023-08-30T17:20:33.399Z,99398.14
2023-08-30T17:23:01.586Z,99399.17
2023-08-30T17:25:29.933Z,99398.45
2023-08-30T17:27:58.144Z,99400.11
2023-08-30T17:30:26.282Z,99398.93
2023-08-30T17:32:54.500Z,99394.90
2023-08-30T17:35:22.823Z,99395.63
2023-08-30T17:37:50.788Z,99394.33
2023-08-30T17:40:19.223Z,99392.64
2023-08-30T17:42:47.442Z,99392.20
2023-08-30T17:45:25.024Z,99392.56
2023-08-30T17:47:53.246Z,99392.41
2023-08-30T17:50:21.542Z,99392.05
2023-08-30T17:52:51.380Z,99387.41
2023-08-30T17:55:19.986Z,99384.35
2023-08-30T17:57:48.290Z,99384.88
2023-08-30T18:00:17.077Z,99377.45
2023-08-30T18:02:48.984Z,99370.70
2023-08-30T18:05:17.984Z,99372.09
2023-08-30T18:07:46.115Z,99372.27
2023-08-30T18:10:14.257Z,99371.91
2023-08-30T18:12:42.585Z,99367.26
2023-08-30T18:15:11.418Z,99371.89
2023-08-30T18:17:39.496Z,99365.70
2023-08-30T18:20:10.062Z,99363.88
2023-08-30T18:22:38.153Z,99359.83
2023-08-30T18:25:06.549Z,99361.82
2023-08-30T18:27:34.712Z,99363.64
2023-08-30T18:30:05.510Z,99365.37
2023-08-30T18:32:34.004Z,99362.92
2023-08-30T18:35:02.785Z,99364.06
2023-08-30T18:37:31.029Z,99366.33
2023-08-30T18:39:59.122Z,99372.63
2023-08-30T18:42:29.265Z,99376.41
2023-08-30T18:44:57.433Z,99375.60
2023-08-30T18:47:25.476Z,99374.80
2023-08-30T18:49:54.566Z,99377.60
2023-08-30T18:52:22.986Z,99373.48
2023-08-30T18:54:51.666Z,99370.20
2023-08-30T18:57:20.695Z,99376.54
2023-08-30T18:59:49.103Z,99379.48
2023-08-30T19:02:17.688Z,99374.73
2023-08-30T19:04:46.222Z,99376.36
2023-08-30T19:07:15.981Z,99379.14
2023-08-30T19:09:49.809Z,99383.60
2023-08-30T19:12:18.061Z,99387.98
2023-08-30T19:14:46.223Z,99390.54
2023-08-30T19:17:14.559Z,99401.09
2023-08-30T19:19:42.916Z,99403.13
2023-08-30T19:22:12.121Z,99405.65
2023-08-30T19:24:40.466Z,99408.89
2023-08-30T19:27:09.991Z,99417.45
2023-08-30T19:29:39.646Z,99418.83
2023-08-30T19:32:08.304Z,99414.99
2023-08-30T19:34:36.625Z,99403.73
2023-08-30T19:37:04.902Z,99396.77
2023-08-30T19:39:33.405Z,99400.71
2023-08-30T19:42:01.721Z,99403.29
2023-08-30T19:44:29.985Z,99409.80
2023-08-30T19:47:00.163Z,99412.68
2023-08-30T19:49:28.450Z,99420.92
2023-08-30T19:51:56.633Z,99426.79
2023-08-30T19:54:24.898Z,99424.15
2023-08-30T19:56:53.603Z,99427.89
2023-08-30T19:59:21.753Z,99429.65
2023-08-30T20:01:49.984Z,99432.45
2023-08-30T20:04:18.467Z,99434.11
2023-08-30T20:06:46.685Z,99434.17
2023-08-30T20:09:15.003Z,99428.35
2023-08-30T20:11:43.347Z,99429.76
2023-08-30T20:14:11.524Z,99427.45
2023-08-30T20:16:39.568Z,99428.87
2023-08-30T20:19:07.742Z,99434.00
2023-08-30T20:21:35.943Z,99435.98
2023-08-30T20:24:05.082Z,99439.67
2023-08-30T20:26:33.406Z,99443.23
2023-08-30T20:29:01.518Z,99444.50
2023-08-30T20:31:30.440Z,99444.67
2023-08-30T20:33:58.600Z,99447.61
2023-08-30T20:36:34.591Z,99447.79
2023-08-30T20:39:07.505Z,99456.45
2023-08-30T20:41:35.560Z,99459.31
2023-08-30T20:44:04.796Z,99461.58
2023-08-30T20:46:32.935Z,99465.70
2023-08-30T20:49:01.098Z,99474.95
2023-08-30T20:51:29.119Z,99473.08
2023-08-30T20:54:02.509Z,99472.00
2023-08-30T20:56:30.664Z,99473.32
2023-08-30T20:59:01.893Z,99474.70
2023-08-30T21:01:31.803Z,99473.76
2023-08-30T21:04:00.325Z,99470.23
2023-08-30T21:06:29.016Z,99472.56
2023-08-30T21:08:58.198Z,99477.77
2023-08-30T21:11:26.436Z,99479.52
2023-08-30T21:13:54.645Z,99481.66
2023-08-30T21:16:22.890Z,99481.92
2023-08-30T21:18:51.068Z,99480.41
2023-08-30T21:21:19.142Z,99484.32
2023-08-30T21:23:47.195Z,99479.04
2023-08-30T21:26:15.186Z,99483.10
2023-08-30T21:28:43.179Z,99478.94
2023-08-30T21:31:11.358Z,99478.56
2023-08-30T21:33:39.605Z,99471.30
2023-08-30T21:36:07.746Z,99472.32
2023-08-30T21:38:35.846Z,99479.30
2023-08-30T21:41:05.021Z,99479.89
2023-08-30T21:43:33.112Z,99480.39
2023-08-30T21:46:01.187Z,99480.73
2023-08-30T21:48:29.329Z,99484.19
2023-08-30T21:50:58.686Z,99487.94
2023-08-30T21:53:27.134Z,99486.08
2023-08-30T21:55:55.155Z,99486.61
2023-08-30T21:58:23.548Z,99488.09
2023-08-30T22:00:53.147Z,99490.30
2023-08-30T22:03:21.237Z,99486.38
2023-08-30T22:05:49.390Z,99483.60
2023-08-30T22:08:17.467Z,99476.97
2023-08-30T22:10:45.593Z,99472.66
2023-08-30T22:13:13.821Z,99468.63
2023-08-30T22:15:42.061Z,99476.13
2023-08-30T22:18:10.092Z,99476.09
2023-08-30T22:20:38.306Z,99475.52
2023-08-30T22:23:06.733Z,99471.11
2023-08-30T22:25:34.827Z,99472.20
2023-08-30T22:28:04.214Z,99470.05
2023-08-30T22:30:32.304Z,99468.71
2023-08-30T22:33:00.442Z,99471.25
2023-08-30T22:35:28.649Z,99474.16
2023-08-30T22:37:57.131Z,99473.27
2023-08-30T22:40:25.181Z,99473.88
2023-08-30T22:42:54.028Z,99475.02
2023-08-30T22:45:22.067Z,99475.89
2023-08-30T22:47:50.714Z,99475.92
2023-08-30T22:50:18.922Z,99471.48
2023-08-30T22:52:47.105Z,99467.33
2023-08-30T22:55:15.131Z,99465.77
2023-08-30T22:57:43.152Z,99464.08
2023-08-30T23:00:11.974Z,99468.25
2023-08-30T23:02:40.290Z,99466.77
2023-08-30T23:05:08.672Z,99462.59
2023-08-30T23:07:36.727Z,99464.08
2023-08-30T23:10:09.591Z,99462.64
2023-08-30T23:12:39.356Z,99459.89
2023-08-30T23:15:07.982Z,99454.27
2023-08-30T23:17:46.158Z,99449.90
2023-08-30T23:20:15.357Z,99447.07
2023-08-30T23:22:43.547Z,99444.09
2023-08-30T23:25:11.944Z,99438.14
2023-08-30T23:27:40.042Z,99434.07
2023-08-30T23:30:09.444Z,99430.23
2023-08-30T23:32:37.748Z,99428.45
2023-08-30T23:35:06.692Z,99431.34
2023-08-30T23:37:34.701Z,99433.92
2023-08-30T23:40:02.730Z,99442.14
2023-08-30T23:42:31.797Z,99442.29
2023-08-30T23:44:59.817Z,99444.02
2023-08-30T23:47:28.506Z,99440.21
2023-08-30T23:49:56.592Z,99444.23
2023-08-30T23:52:25.136Z,99445.96
2023-08-30T23:54:57.552Z,99444.02
2023-08-30T23:57:25.806Z,99446.23
2023-08-30T23:59:53.896Z,99443.71
